createdAt,value
2019-04-06T00:01:46.294Z,10.73
2019-04-06T00:04:15.791Z,11.23
2019-04-06T00:06:44.910Z,12.10
2019-04-06T00:09:14.112Z,11.23
2019-04-06T00:11:43.587Z,12.40
2019-04-06T00:14:12.764Z,13.40
2019-04-06T00:16:41.940Z,12.90
2019-04-06T00:19:12.715Z,13.20
2019-04-06T00:21:41.920Z,12.50
2019-04-06T00:24:13.344Z,14.33
2019-04-06T00:26:42.604Z,13.37
2019-04-06T00:29:11.778Z,13.33
2019-04-06T00:31:59.192Z,13.93
2019-04-06T00:34:28.647Z,13.07
2019-04-06T00:36:57.829Z,14.07
2019-04-06T00:39:27.234Z,13.70
2019-04-06T00:41:56.378Z,14.33
2019-04-06T00:44:25.503Z,14.20
2019-04-06T00:46:54.882Z,13.80
2019-04-06T00:49:23.975Z,14.37
2019-04-06T00:51:53.100Z,14.97
2019-04-06T00:54:22.683Z,14.80
2019-04-06T00:56:51.870Z,14.20
2019-04-06T00:59:21.078Z,15.00
2019-04-06T01:01:50.619Z,15.37
2019-04-06T01:04:19.895Z,14.77
2019-04-06T01:06:49.007Z,15.30
2019-04-06T01:09:18.501Z,14.97
2019-04-06T01:11:47.681Z,15.03
2019-04-06T01:14:16.801Z,14.40
2019-04-06T01:16:46.065Z,15.37
2019-04-06T01:19:19.212Z,14.63
2019-04-06T01:21:48.517Z,15.20
2019-04-06T01:24:17.762Z,16.23
2019-04-06T01:26:46.785Z,16.27
2019-04-06T01:29:16.265Z,16.47
2019-04-06T01:31:45.373Z,15.87
2019-04-06T01:34:16.746Z,16.57
2019-04-06T01:36:46.135Z,16.83
2019-04-06T01:39:15.170Z,17.03
2019-04-06T01:41:44.343Z,16.70
2019-04-06T01:44:14.491Z,16.37
2019-04-06T01:46:43.755Z,17.20
2019-04-06T01:49:19.787Z,17.07
2019-04-06T01:51:48.899Z,17.03
2019-04-06T01:54:18.062Z,16.50
2019-04-06T01:56:47.469Z,17.17
2019-04-06T01:59:16.650Z,16.60
2019-04-06T02:01:51.090Z,18.10
2019-04-06T02:04:20.192Z,17.77
2019-04-06T02:06:49.463Z,17.47
2019-04-06T02:09:18.889Z,16.47
2019-04-06T02:11:48.155Z,17.40
2019-04-06T02:14:17.343Z,17.20
2019-04-06T02:16:46.683Z,17.90
2019-04-06T02:19:15.780Z,16.53
2019-04-06T02:21:44.962Z,17.17
2019-04-06T02:24:14.269Z,17.67
2019-04-06T02:26:43.300Z,17.50
2019-04-06T02:29:12.406Z,17.17
2019-04-06T02:32:00.630Z,17.30
2019-04-06T02:34:49.877Z,17.83
2019-04-06T02:37:29.417Z,16.57
2019-04-06T02:40:17.751Z,18.73
2019-04-06T02:42:50.672Z,17.83
2019-04-06T02:45:20.642Z,17.20
2019-04-06T02:47:49.796Z,18.13
2019-04-06T02:50:19.165Z,18.10
2019-04-06T02:52:48.333Z,17.83
2019-04-06T02:55:17.426Z,18.33
2019-04-06T02:57:46.859Z,17.53
2019-04-06T03:00:16.011Z,19.27
2019-04-06T03:02:45.212Z,18.90
2019-04-06T03:05:14.560Z,18.33
2019-04-06T03:07:45.133Z,19.10
2019-04-06T03:10:21.171Z,17.67
2019-04-06T03:12:50.319Z,18.80
2019-04-06T03:15:19.447Z,17.97
2019-04-06T03:17:48.854Z,20.70
2019-04-06T03:20:17.937Z,19.07
2019-04-06T03:22:47.057Z,18.80
2019-04-06T03:25:16.543Z,18.87
2019-04-06T03:27:45.702Z,19.13
2019-04-06T03:30:15.636Z,19.07
2019-04-06T03:32:45.595Z,20.03
2019-04-06T03:35:16.475Z,21.00
2019-04-06T03:37:45.489Z,20.23
2019-04-06T03:40:14.889Z,20.80
2019-04-06T03:42:43.984Z,19.60
2019-04-06T03:45:19.235Z,21.07
2019-04-06T03:47:48.583Z,20.40
2019-04-06T03:50:18.157Z,20.07
2019-04-06T03:52:47.508Z,19.43
2019-04-06T03:55:16.613Z,19.03
2019-04-06T03:57:45.758Z,19.10
2019-04-06T04:00:15.955Z,18.93
2019-04-06T04:02:45.043Z,21.17
2019-04-06T04:05:14.161Z,20.97
2019-04-06T04:07:43.417Z,19.40
2019-04-06T04:10:21.169Z,19.37
2019-04-06T04:12:50.303Z,20.47
2019-04-06T04:15:19.397Z,20.93
2019-04-06T04:17:48.470Z,19.57
2019-04-06T04:20:17.790Z,21.37
2019-04-06T04:22:46.866Z,20.37
2019-04-06T04:25:15.970Z,19.50
2019-04-06T04:27:45.179Z,20.60
2019-04-06T04:30:30.753Z,20.27
2019-04-06T04:32:47.130Z,22.33
2019-04-06T04:35:18.516Z,20.67
2019-04-06T04:37:46.923Z,20.43
2019-04-06T04:40:16.610Z,20.23
2019-04-06T04:42:45.877Z,20.83
2019-04-06T04:45:15.195Z,20.67
2019-04-06T04:47:44.505Z,21.17
2019-04-06T04:50:13.572Z,20.77
2019-04-06T04:52:42.601Z,21.10
2019-04-06T04:55:12.011Z,21.17
2019-04-06T04:57:42.003Z,21.50
2019-04-06T05:00:12.943Z,21.27
2019-04-06T05:02:42.137Z,21.10
2019-04-06T05:05:17.815Z,20.17
2019-04-06T05:07:46.752Z,22.20
2019-04-06T05:10:19.137Z,22.03
2019-04-06T05:12:48.120Z,22.07
2019-04-06T05:15:23.699Z,21.07
2019-04-06T05:17:52.770Z,21.30
2019-04-06T05:20:23.830Z,21.63
2019-04-06T05:22:53.595Z,20.43
2019-04-06T05:25:22.942Z,21.10
2019-04-06T05:27:53.090Z,21.67
2019-04-06T05:30:24.524Z,21.17
2019-04-06T05:32:53.720Z,21.47
2019-04-06T05:35:22.838Z,22.00
2019-04-06T05:37:52.226Z,22.27
2019-04-06T05:40:21.475Z,21.97
2019-04-06T05:42:50.534Z,21.53
2019-04-06T05:45:19.803Z,22.60
2019-04-06T05:47:48.845Z,23.67
2019-04-06T05:50:18.087Z,23.00
2019-04-06T05:52:47.502Z,22.23
2019-04-06T05:55:16.578Z,21.50
2019-04-06T05:57:45.670Z,21.33
2019-04-06T06:00:15.285Z,23.47
2019-04-06T06:02:44.430Z,23.37
2019-04-06T06:05:13.626Z,22.40
2019-04-06T06:07:42.896Z,23.10
2019-04-06T06:10:14.854Z,23.00
2019-04-06T06:12:44.478Z,22.97
2019-04-06T06:15:13.730Z,22.77
2019-04-06T06:17:42.812Z,23.20
2019-04-06T06:20:12.249Z,22.40
2019-04-06T06:22:41.372Z,22.30
2019-04-06T06:25:10.679Z,22.80
2019-04-06T06:27:39.952Z,23.67
2019-04-06T06:30:09.599Z,22.53
2019-04-06T06:32:38.732Z,24.60
2019-04-06T06:35:08.358Z,23.83
2019-04-06T06:37:37.421Z,24.63
2019-04-06T06:40:06.710Z,23.90
2019-04-06T06:42:36.066Z,22.30
2019-04-06T06:45:06.026Z,25.43
2019-04-06T06:47:35.448Z,23.93
2019-04-06T06:50:05.699Z,23.63
2019-04-06T06:52:34.805Z,24.83
2019-04-06T06:55:04.381Z,24.97
2019-04-06T06:57:33.714Z,24.97
2019-04-06T07:00:02.829Z,26.20
2019-04-06T07:02:31.988Z,24.53
2019-04-06T07:05:01.301Z,23.90
2019-04-06T07:07:30.306Z,24.80
2019-04-06T07:10:05.005Z,24.67
2019-04-06T07:12:30.385Z,25.70
2019-04-06T07:14:59.368Z,25.43
2019-04-06T07:17:28.424Z,25.70
2019-04-06T07:19:57.715Z,25.33
2019-04-06T07:22:26.853Z,26.57
2019-04-06T07:24:55.929Z,24.90
2019-04-06T07:27:25.316Z,24.90
2019-04-06T07:29:54.442Z,25.23
2019-04-06T07:32:23.743Z,26.17
2019-04-06T07:34:53.022Z,25.57
2019-04-06T07:37:22.064Z,26.17
2019-04-06T07:39:51.122Z,25.77
2019-04-06T07:42:20.426Z,26.37
2019-04-06T07:44:49.518Z,26.63
2019-04-06T07:47:18.564Z,26.43
2019-04-06T07:49:47.802Z,25.77
2019-04-06T07:52:17.026Z,27.20
2019-04-06T07:54:46.103Z,25.97
2019-04-06T07:57:15.273Z,26.50
2019-04-06T07:59:44.600Z,25.43
2019-04-06T08:02:14.294Z,25.60
2019-04-06T08:04:43.692Z,26.27
2019-04-06T08:07:12.702Z,25.10
2019-04-06T08:09:41.887Z,25.73
2019-04-06T08:12:11.138Z,25.73
2019-04-06T08:14:40.400Z,25.87
2019-04-06T08:17:16.000Z,25.27
2019-04-06T08:19:45.134Z,24.67
2019-04-06T08:22:24.596Z,25.10
2019-04-06T08:24:53.592Z,24.50
2019-04-06T08:27:22.694Z,24.30
2019-04-06T08:29:51.842Z,24.07
2019-04-06T08:32:22.269Z,25.00
2019-04-06T08:34:51.412Z,24.00
2019-04-06T08:37:21.020Z,23.80
2019-04-06T08:39:50.124Z,24.87
2019-04-06T08:42:23.505Z,23.63
2019-04-06T08:44:52.570Z,22.93
2019-04-06T08:47:28.311Z,23.70
2019-04-06T08:49:57.366Z,22.90
2019-04-06T08:52:26.581Z,23.40
2019-04-06T08:54:55.931Z,23.00
2019-04-06T08:57:25.194Z,22.77
2019-04-06T08:59:54.220Z,22.60
2019-04-06T09:02:23.611Z,22.63
2019-04-06T09:04:52.683Z,24.10
2019-04-06T09:07:21.768Z,22.73
2019-04-06T09:09:51.143Z,22.47
2019-04-06T09:12:20.251Z,23.17
2019-04-06T09:14:49.327Z,22.90
2019-04-06T09:17:18.599Z,23.23
2019-04-06T09:19:47.684Z,22.90
2019-04-06T09:22:19.570Z,23.97
2019-04-06T09:24:48.719Z,22.20
2019-04-06T09:27:17.956Z,22.37
2019-04-06T09:29:47.914Z,22.87
2019-04-06T09:32:16.820Z,22.43
2019-04-06T09:34:45.894Z,23.37
2019-04-06T09:37:15.130Z,23.83
2019-04-06T09:39:44.311Z,23.77
2019-04-06T09:42:16.484Z,24.70
2019-04-06T09:45:14.204Z,24.70
2019-04-06T09:47:59.802Z,24.33
2019-04-06T09:50:54.026Z,22.57
2019-04-06T09:54:05.724Z,22.37
2019-04-06T09:56:39.367Z,22.67
2019-04-06T09:59:36.264Z,23.63
2019-04-06T10:02:24.738Z,23.97
2019-04-06T10:05:02.114Z,24.50
2019-04-06T10:08:08.224Z,23.57
2019-04-06T10:11:01.963Z,22.87
2019-04-06T10:14:05.321Z,22.60
2019-04-06T10:16:49.856Z,21.57
2019-04-06T10:19:41.158Z,22.77
2019-04-06T10:22:35.454Z,24.20
2019-04-06T10:25:26.536Z,23.03
2019-04-06T10:28:25.578Z,24.13
2019-04-06T10:31:19.713Z,25.17
2019-04-06T10:34:14.008Z,24.73
2019-04-06T10:37:06.444Z,24.90
2019-04-06T10:39:44.319Z,27.00
2019-04-06T10:42:32.628Z,26.60
2019-04-06T10:45:27.094Z,26.33
2019-04-06T10:48:13.439Z,25.23
2019-04-06T10:51:14.126Z,25.47
2019-04-06T10:53:55.294Z,25.67
2019-04-06T10:56:39.682Z,26.20
2019-04-06T10:59:36.206Z,26.43
2019-04-06T11:02:24.536Z,26.50
2019-04-06T11:05:06.691Z,26.03
2019-04-06T11:07:54.961Z,26.43
2019-04-06T11:10:56.611Z,25.90
2019-04-06T11:13:42.890Z,28.03
2019-04-06T11:16:33.815Z,27.30
2019-04-06T11:19:13.383Z,28.37
2019-04-06T11:22:03.690Z,28.70
2019-04-06T11:25:14.852Z,28.63
2019-04-06T11:28:14.764Z,27.43
2019-04-06T11:30:54.590Z,29.17
2019-04-06T11:34:00.649Z,27.90
2019-04-06T11:36:51.705Z,26.93
2019-04-06T11:39:36.442Z,26.37
2019-04-06T11:42:12.402Z,25.53
2019-04-06T11:45:01.090Z,28.00
2019-04-06T11:47:55.230Z,26.90
2019-04-06T11:50:41.249Z,25.10
2019-04-06T11:53:47.786Z,23.67
2019-04-06T11:56:27.187Z,24.17
2019-04-06T11:59:14.306Z,23.80
2019-04-06T12:02:08.148Z,24.33
2019-04-06T12:04:43.589Z,25.00
2019-04-06T12:07:30.286Z,25.97
2019-04-06T12:10:24.730Z,24.20
2019-04-06T12:13:17.896Z,25.17
2019-04-06T12:16:15.609Z,25.90
2019-04-06T12:19:15.879Z,23.77
2019-04-06T12:22:03.117Z,22.80
2019-04-06T12:24:51.622Z,24.97
2019-04-06T12:27:45.920Z,24.07
2019-04-06T12:30:37.339Z,24.17
2019-04-06T12:33:18.657Z,23.93
2019-04-06T12:36:04.938Z,25.03
2019-04-06T12:38:43.187Z,24.17
2019-04-06T12:41:35.129Z,22.73
2019-04-06T12:44:16.456Z,24.07
2019-04-06T12:47:16.876Z,23.37
2019-04-06T12:49:54.214Z,22.47
2019-04-06T12:52:42.454Z,20.63
2019-04-06T12:55:39.772Z,21.47
2019-04-06T12:58:36.823Z,22.20
2019-04-06T13:01:22.573Z,22.37
2019-04-06T13:04:04.662Z,22.03
2019-04-06T13:07:01.596Z,22.23
2019-04-06T13:10:07.547Z,22.43
2019-04-06T13:12:58.661Z,23.23
2019-04-06T13:15:44.784Z,22.17
2019-04-06T13:18:27.265Z,22.00
2019-04-06T13:21:18.158Z,21.30
2019-04-06T13:23:58.525Z,22.53
2019-04-06T13:26:40.555Z,22.50
2019-04-06T13:29:27.778Z,22.37
2019-04-06T13:32:19.162Z,22.27
2019-04-06T13:35:16.497Z,22.37
2019-04-06T13:38:05.532Z,21.13
2019-04-06T13:40:52.388Z,23.07
2019-04-06T13:43:39.090Z,21.90
2019-04-06T13:46:24.026Z,23.13
2019-04-06T13:49:22.316Z,21.00
2019-04-06T13:52:07.870Z,22.57
2019-04-06T13:55:02.055Z,21.53
2019-04-06T13:57:39.469Z,22.30
2019-04-06T14:00:31.020Z,21.23
2019-04-06T14:03:28.421Z,20.63
2019-04-06T14:06:22.568Z,21.70
2019-04-06T14:08:58.648Z,22.63
2019-04-06T14:11:55.874Z,20.80
2019-04-06T14:14:38.813Z,19.93
2019-04-06T14:17:20.433Z,19.47
2019-04-06T14:20:12.961Z,20.63
2019-04-06T14:23:04.128Z,22.13
2019-04-06T14:26:04.640Z,21.27
2019-04-06T14:28:55.722Z,21.20
2019-04-06T14:31:50.083Z,20.57
2019-04-06T14:34:47.332Z,19.77
2019-04-06T14:37:38.599Z,20.10
2019-04-06T14:40:25.662Z,19.67
2019-04-06T14:43:16.984Z,19.77
2019-04-06T14:46:04.223Z,19.07
2019-04-06T14:48:46.882Z,19.50
2019-04-06T14:51:24.770Z,19.67
2019-04-06T14:54:18.860Z,20.37
2019-04-06T14:57:00.853Z,18.47
2019-04-06T14:59:48.706Z,17.90
2019-04-06T15:02:28.367Z,17.90
2019-04-06T15:05:17.061Z,18.30
2019-04-06T15:07:57.027Z,19.23
2019-04-06T15:11:00.713Z,20.47
2019-04-06T15:13:47.155Z,20.27
2019-04-06T15:16:26.051Z,20.83
2019-04-06T15:19:19.749Z,19.13
2019-04-06T15:22:20.459Z,17.80
2019-04-06T15:25:07.053Z,17.70
2019-04-06T15:27:55.408Z,18.10
2019-04-06T15:30:34.863Z,19.03
2019-04-06T15:33:14.490Z,19.20
2019-04-06T15:36:03.684Z,21.87
2019-04-06T15:38:52.151Z,21.20
2019-04-06T15:41:40.608Z,22.80
2019-04-06T15:44:31.906Z,24.37
2019-04-06T15:47:22.815Z,23.50
2019-04-06T15:50:09.851Z,24.00
2019-04-06T15:53:00.698Z,23.37
2019-04-06T15:56:10.149Z,33.47
2019-04-06T15:58:50.821Z,24.60
2019-04-06T16:01:42.998Z,25.23
2019-04-06T16:04:28.055Z,25.10
2019-04-06T16:07:29.721Z,27.23
2019-04-06T16:10:09.214Z,27.83
2019-04-06T18:13:22.738Z,26.37
2019-04-06T18:15:51.951Z,28.10
2019-04-06T18:18:21.211Z,27.00
2019-04-06T18:20:50.424Z,28.53
2019-04-06T18:23:22.119Z,28.87
2019-04-06T18:25:51.262Z,27.63
2019-04-06T18:28:26.940Z,28.83
2019-04-06T18:31:03.983Z,28.17
2019-04-06T18:33:33.109Z,29.40
2019-04-06T18:36:02.522Z,28.20
2019-04-06T18:38:36.466Z,29.77
2019-04-06T18:41:11.967Z,30.43
2019-04-06T18:43:41.648Z,31.13
2019-04-06T18:46:11.556Z,30.80
2019-04-06T18:48:40.739Z,30.90
2019-04-06T18:51:10.177Z,30.67
2019-04-06T18:53:39.194Z,32.03
2019-04-06T18:56:08.562Z,30.70
2019-04-06T18:58:38.087Z,32.20
2019-04-06T19:01:07.339Z,32.03
2019-04-06T19:03:36.858Z,31.80
2019-04-06T19:06:06.340Z,33.80
2019-04-06T19:08:35.455Z,32.43
2019-04-06T19:11:04.699Z,32.37
2019-04-06T19:13:34.146Z,34.80
2019-04-06T19:16:03.848Z,33.60
2019-04-06T19:18:33.443Z,33.53
2019-04-06T19:21:02.997Z,33.40
2019-04-06T19:23:32.212Z,34.30
2019-04-06T19:26:03.729Z,33.60
2019-04-06T19:28:33.083Z,33.90
2019-04-06T19:31:02.223Z,33.27
2019-04-06T19:33:31.567Z,32.77
2019-04-06T19:36:01.212Z,34.63
2019-04-06T19:38:30.331Z,32.63
2019-04-06T19:40:59.724Z,33.23
2019-04-06T19:43:29.618Z,34.10
2019-04-06T19:45:58.964Z,34.10
2019-04-06T19:48:28.460Z,35.30
2019-04-06T19:50:57.925Z,34.03
2019-04-06T19:53:27.745Z,35.33
2019-04-06T19:55:57.439Z,37.03
2019-04-06T19:58:27.068Z,40.17
2019-04-06T20:00:56.412Z,40.77
2019-04-06T20:03:34.645Z,38.33
2019-04-06T20:05:56.534Z,36.93
2019-04-06T20:08:25.655Z,36.90
2019-04-06T20:10:54.702Z,35.20
2019-04-06T20:13:24.828Z,34.50
2019-04-06T20:15:54.313Z,34.47
2019-04-06T20:18:23.709Z,34.60
2019-04-06T20:20:53.091Z,35.40
2019-04-06T20:23:22.251Z,37.57
2019-04-06T20:25:51.364Z,35.90
2019-04-06T20:28:20.646Z,34.80
2019-04-06T20:30:49.743Z,34.90
2019-04-06T20:33:19.914Z,36.80
2019-04-06T20:35:49.927Z,39.20
2019-04-06T20:38:19.519Z,40.17
2019-04-06T20:40:48.692Z,42.47
2019-04-06T20:43:18.538Z,41.70
2019-04-06T20:45:47.714Z,38.43
2019-04-06T20:48:16.711Z,36.47
2019-04-06T20:50:46.122Z,36.70
2019-04-06T20:53:15.285Z,34.93
2019-04-06T20:55:44.373Z,38.70
2019-04-06T20:58:13.840Z,37.57
2019-04-06T21:00:42.939Z,37.30
2019-04-06T21:03:12.348Z,37.67
2019-04-06T21:05:41.709Z,38.80
2019-04-06T21:08:10.927Z,36.20
2019-04-06T21:10:40.752Z,36.07
2019-04-06T21:13:10.125Z,34.23
2019-04-06T21:15:39.507Z,34.30
2019-04-06T21:18:12.126Z,32.40
2019-04-06T21:20:41.609Z,33.43
2019-04-06T21:23:10.811Z,33.53
2019-04-06T21:25:40.232Z,34.57
2019-04-06T21:28:10.035Z,33.57
2019-04-06T21:30:39.098Z,33.70
2019-04-06T21:33:08.776Z,34.07
2019-04-06T21:35:38.339Z,34.10
2019-04-06T21:38:07.762Z,33.93
2019-04-06T21:40:37.361Z,34.33
2019-04-06T21:43:06.887Z,33.80
2019-04-06T21:45:36.610Z,33.80
2019-04-06T21:48:06.020Z,33.43
2019-04-06T21:50:35.296Z,33.90
2019-04-06T21:53:04.382Z,34.13
2019-04-06T21:55:33.493Z,35.70
2019-04-06T21:58:03.025Z,36.60
2019-04-06T22:00:50.024Z,35.50
2019-04-06T22:03:19.972Z,34.43
2019-04-06T22:05:50.502Z,35.03
2019-04-06T22:08:19.708Z,34.43
2019-04-06T22:10:49.096Z,34.90
2019-04-06T22:13:18.409Z,35.10
2019-04-06T22:15:47.466Z,32.20
2019-04-06T22:18:17.063Z,32.97
2019-04-06T22:20:46.413Z,33.57
2019-04-06T22:23:15.674Z,32.73
2019-04-06T22:25:44.986Z,32.77
2019-04-06T22:28:14.234Z,33.93
2019-04-06T22:30:43.298Z,33.67
2019-04-06T22:33:12.961Z,33.80
2019-04-06T22:35:42.112Z,35.93
2019-04-06T22:38:11.184Z,34.50
2019-04-06T22:40:40.635Z,34.20
2019-04-06T22:43:09.834Z,34.23
2019-04-06T22:45:39.269Z,33.13
2019-04-06T22:48:09.131Z,33.17
2019-04-06T22:50:38.324Z,33.63
2019-04-06T22:53:07.551Z,34.93
2019-04-06T22:55:36.690Z,34.00
2019-04-06T22:58:06.436Z,32.23
2019-04-06T23:01:01.327Z,32.70
2019-04-06T23:03:48.249Z,33.60
2019-04-06T23:06:23.284Z,34.13
2019-04-06T23:08:53.070Z,34.80
2019-04-06T23:11:22.257Z,34.40
2019-04-06T23:13:51.594Z,35.23
2019-04-06T23:16:20.744Z,34.97
2019-04-06T23:18:50.268Z,34.77
2019-04-06T23:21:19.564Z,32.93
2019-04-06T23:23:48.682Z,34.90
2019-04-06T23:26:17.935Z,37.67
2019-04-06T23:28:47.565Z,37.27
2019-04-06T23:31:16.695Z,36.33
2019-04-06T23:33:45.943Z,35.57
2019-04-06T23:36:15.245Z,37.13
2019-04-06T23:38:44.279Z,38.33
2019-04-06T23:41:13.405Z,37.73
2019-04-06T23:43:43.897Z,37.23
2019-04-06T23:46:13.050Z,38.70
2019-04-06T23:48:42.195Z,38.50
2019-04-06T23:51:11.408Z,37.87
2019-04-06T23:53:40.849Z,37.70
2019-04-06T23:56:10.139Z,37.23
2019-04-06T23:58:39.363Z,37.83
